createdAt,value
2022-10-01T00:00:04.121Z,94213.50
2022-10-01T00:02:32.732Z,94215.63
2022-10-01T00:05:01.267Z,94216.47
2022-10-01T00:07:30.141Z,94216.25
2022-10-01T00:09:58.601Z,94225.63
2022-10-01T00:12:27.045Z,94222.69
2022-10-01T00:14:55.514Z,94225.66
2022-10-01T00:17:24.219Z,94229.41
2022-10-01T00:19:52.796Z,94232.34
2022-10-01T00:22:21.456Z,94233.97
2022-10-01T00:24:50.688Z,94237.72
2022-10-01T00:27:19.543Z,94239.06
2022-10-01T00:29:47.982Z,94235.84
2022-10-01T00:32:16.727Z,94238.50
2022-10-01T00:34:45.270Z,94248.69
2022-10-01T00:37:14.298Z,94246.00
2022-10-01T00:39:44.383Z,94246.53
2022-10-01T00:42:28.217Z,94249.22
2022-10-01T00:44:58.379Z,94247.59
2022-10-01T00:47:46.109Z,94245.44
2022-10-01T00:50:29.591Z,94241.41
2022-10-01T00:53:04.584Z,94239.53
2022-10-01T00:55:39.940Z,94237.38
2022-10-01T00:58:10.812Z,94240.28
2022-10-01T01:00:40.674Z,94243.22
2022-10-01T01:03:10.909Z,94250.69
2022-10-01T01:05:40.847Z,94260.31
2022-10-01T01:08:11.478Z,94261.31
2022-10-01T01:11:13.146Z,94271.41
2022-10-01T01:14:24.514Z,94277.25
2022-10-01T01:17:11.322Z,94276.69
2022-10-01T01:20:19.440Z,94274.22
2022-10-01T01:22:59.620Z,94277.91
2022-10-01T01:25:36.944Z,94270.13
2022-10-01T01:28:22.963Z,94279.97
2022-10-01T01:30:57.593Z,94277.78
2022-10-01T01:33:28.379Z,94283.63
2022-10-01T01:36:11.226Z,94269.41
2022-10-01T01:38:47.783Z,94276.56
2022-10-01T01:41:17.887Z,94276.25
2022-10-01T01:43:49.847Z,94281.81
2022-10-01T01:46:20.845Z,94284.69
2022-10-01T01:48:52.544Z,94286.75
2022-10-01T01:51:42.523Z,94288.84
2022-10-01T01:54:11.157Z,94292.19
2022-10-01T01:56:40.211Z,94293.50
2022-10-01T01:59:09.467Z,94290.97
2022-10-01T02:01:45.606Z,94297.09
2022-10-01T02:04:17.122Z,94294.34
2022-10-01T02:07:04.588Z,94297.47
2022-10-01T02:09:39.405Z,94300.41
2022-10-01T02:12:30.897Z,94301.41
2022-10-01T02:15:19.719Z,94300.84
2022-10-01T02:18:04.728Z,94293.56
2022-10-01T02:20:40.774Z,94298.84
2022-10-01T02:23:13.555Z,94298.81
2022-10-01T02:25:46.934Z,94303.28
2022-10-01T02:28:20.392Z,94295.44
2022-10-01T02:30:51.771Z,94314.06
2022-10-01T02:33:26.542Z,94308.97
2022-10-01T02:35:57.730Z,94312.16
2022-10-01T02:38:27.756Z,94304.88
2022-10-01T02:41:03.345Z,94302.16
2022-10-01T02:43:42.740Z,94301.59
2022-10-01T02:46:32.259Z,94301.50
2022-10-01T02:49:04.178Z,94301.50
2022-10-01T02:51:47.384Z,94307.84
2022-10-01T02:54:24.224Z,94296.84
2022-10-01T02:57:11.310Z,94299.19
2022-10-01T02:59:40.033Z,94294.34
2022-10-01T03:02:08.718Z,94302.03
2022-10-01T03:04:37.352Z,94296.97
2022-10-01T03:07:06.069Z,94305.41
2022-10-01T03:09:35.843Z,94304.28
2022-10-01T03:12:04.676Z,94311.72
2022-10-01T03:14:33.685Z,94312.47
2022-10-01T03:17:02.267Z,94316.06
2022-10-01T03:19:30.863Z,94316.31
2022-10-01T03:21:59.431Z,94326.09
2022-10-01T03:24:28.876Z,94334.34
2022-10-01T03:27:00.899Z,94339.59
2022-10-01T03:29:29.507Z,94336.59
2022-10-01T03:31:58.518Z,94343.94
2022-10-01T03:34:27.129Z,94345.16
2022-10-01T03:36:55.828Z,94344.50
2022-10-01T03:39:24.666Z,94347.00
2022-10-01T03:41:53.366Z,94345.28
2022-10-01T03:44:22.254Z,94349.94
2022-10-01T03:46:51.896Z,94343.97
2022-10-01T03:49:20.649Z,94347.09
2022-10-01T03:54:32.758Z,94346.34
2022-10-01T03:57:01.342Z,94348.69
2022-10-01T03:59:30.778Z,94351.25
2022-10-01T04:01:59.432Z,94356.22
2022-10-01T04:04:30.175Z,94356.69
2022-10-01T04:06:58.590Z,94355.19
2022-10-01T04:09:27.057Z,94359.81
2022-10-01T04:11:55.866Z,94350.44
2022-10-01T04:14:24.334Z,94355.75
2022-10-01T04:16:53.655Z,94358.41
2022-10-01T04:19:22.206Z,94347.19
2022-10-01T04:21:50.712Z,94350.19
2022-10-01T04:24:19.253Z,94348.00
2022-10-01T04:26:47.730Z,94346.16
2022-10-01T04:29:16.221Z,94347.44
2022-10-01T04:31:44.719Z,94338.41
2022-10-01T04:34:13.284Z,94323.72
2022-10-01T04:36:42.119Z,94319.91
2022-10-01T04:39:10.031Z,94313.53
2022-10-01T04:41:39.212Z,94315.88
2022-10-01T04:44:08.170Z,94313.69
2022-10-01T04:46:37.584Z,94307.53
2022-10-01T04:49:06.321Z,94308.59
2022-10-01T04:51:34.786Z,94307.53
2022-10-01T04:54:04.030Z,94311.81
2022-10-01T04:56:32.552Z,94305.94
2022-10-01T04:59:01.183Z,94309.41
2022-10-01T05:01:29.757Z,94311.50
2022-10-01T05:03:58.231Z,94309.88
2022-10-01T05:06:26.487Z,94307.69
2022-10-01T05:08:55.123Z,94306.06
2022-10-01T05:11:23.253Z,94312.66
2022-10-01T05:13:51.184Z,94305.94
2022-10-01T05:16:19.845Z,94314.97
2022-10-01T05:18:48.323Z,94327.13
2022-10-01T05:21:16.691Z,94333.72
2022-10-01T05:23:45.185Z,94346.34
2022-10-01T05:26:13.770Z,94332.25
2022-10-01T05:28:45.728Z,94329.59
2022-10-01T05:31:15.015Z,94322.31
2022-10-01T05:33:43.810Z,94311.91
2022-10-01T05:36:12.704Z,94317.13
2022-10-01T05:38:41.206Z,94321.88
2022-10-01T05:41:09.838Z,94318.06
2022-10-01T05:43:38.467Z,94314.25
2022-10-01T05:46:07.533Z,94312.06
2022-10-01T05:48:38.149Z,94318.41
2022-10-01T05:51:09.571Z,94322.94
2022-10-01T05:53:39.163Z,94335.31
2022-10-01T05:56:08.993Z,94330.09
2022-10-01T05:58:37.794Z,94329.75
2022-10-01T06:01:06.837Z,94332.22
2022-10-01T06:03:35.273Z,94331.66
2022-10-01T06:06:03.736Z,94329.91
2022-10-01T06:08:32.667Z,94333.75
2022-10-01T06:11:05.151Z,94335.66
2022-10-01T06:13:33.654Z,94326.19
2022-10-01T06:16:02.500Z,94323.75
2022-10-01T06:18:31.061Z,94326.91
2022-10-01T06:21:01.019Z,94318.28
2022-10-01T06:23:29.548Z,94321.59
2022-10-01T06:25:58.142Z,94319.03
2022-10-01T06:28:26.726Z,94332.38
2022-10-01T06:30:55.262Z,94326.88
2022-10-01T06:33:23.809Z,94330.56
2022-10-01T06:35:53.566Z,94324.50
2022-10-01T06:38:24.378Z,94323.53
2022-10-01T06:40:58.232Z,94311.41
2022-10-01T06:43:28.663Z,94304.84
2022-10-01T06:45:58.534Z,94297.03
2022-10-01T06:48:27.043Z,94305.72
2022-10-01T06:50:57.177Z,94315.97
2022-10-01T06:53:25.639Z,94311.47
2022-10-01T06:55:54.167Z,94316.78
2022-10-01T06:58:25.726Z,94319.34
2022-10-01T07:01:03.236Z,94326.44
2022-10-01T07:03:32.737Z,94326.66
2022-10-01T07:06:06.398Z,94321.78
2022-10-01T07:08:34.961Z,94330.69
2022-10-01T07:11:04.599Z,94348.75
2022-10-01T07:13:33.084Z,94345.63
2022-10-01T07:16:03.767Z,94341.00
2022-10-01T07:18:32.199Z,94330.19
2022-10-01T07:21:00.951Z,94329.22
2022-10-01T07:23:29.449Z,94319.81
2022-10-01T07:25:57.882Z,94324.19
2022-10-01T07:28:27.271Z,94322.72
2022-10-01T07:31:11.749Z,94319.91
2022-10-01T07:33:41.092Z,94319.59
2022-10-01T07:36:12.278Z,94313.06
2022-10-01T07:38:40.756Z,94308.63
2022-10-01T07:41:09.252Z,94319.88
2022-10-01T07:43:37.955Z,94319.06
2022-10-01T07:46:08.378Z,94318.25
2022-10-01T07:48:37.242Z,94313.91
2022-10-01T07:51:06.086Z,94318.94
2022-10-01T07:53:34.486Z,94315.53
2022-10-01T07:56:03.556Z,94308.88
2022-10-01T07:58:32.087Z,94316.84
2022-10-01T08:01:05.760Z,94313.25
2022-10-01T08:03:34.267Z,94313.69
2022-10-01T08:06:07.161Z,94314.53
2022-10-01T08:08:35.675Z,94319.28
2022-10-01T08:11:04.830Z,94313.63
2022-10-01T08:13:33.409Z,94323.59
2022-10-01T08:16:05.432Z,94336.63
2022-10-01T08:18:35.115Z,94335.41
2022-10-01T08:21:03.859Z,94328.69
2022-10-01T08:23:35.070Z,94332.53
2022-10-01T08:26:06.785Z,94337.81
2022-10-01T08:28:36.623Z,94339.59
2022-10-01T08:31:10.699Z,94343.09
2022-10-01T08:33:39.639Z,94344.28
2022-10-01T08:36:09.621Z,94340.66
2022-10-01T08:38:38.965Z,94337.41
2022-10-01T08:41:38.364Z,94347.53
2022-10-01T08:44:08.898Z,94357.13
2022-10-01T08:46:39.199Z,94353.66
2022-10-01T08:49:22.554Z,94351.03
2022-10-01T08:52:04.477Z,94358.78
2022-10-01T08:54:42.256Z,94365.09
2022-10-01T08:57:19.343Z,94361.06
2022-10-01T08:59:51.301Z,94356.81
2022-10-01T09:02:26.969Z,94355.00
2022-10-01T09:05:01.886Z,94347.09
2022-10-01T09:07:53.208Z,94357.25
2022-10-01T09:10:43.198Z,94343.03
2022-10-01T09:13:51.204Z,94356.25
2022-10-01T09:16:34.567Z,94357.06
2022-10-01T09:19:18.465Z,94355.44
2022-10-01T09:22:00.069Z,94350.97
2022-10-01T09:24:48.310Z,94353.44
2022-10-01T09:27:25.342Z,94346.94
2022-10-01T09:29:56.617Z,94351.59
2022-10-01T09:32:30.336Z,94343.28
2022-10-01T09:35:04.613Z,94348.34
2022-10-01T09:38:40.927Z,94354.44
2022-10-01T09:41:11.646Z,94353.63
2022-10-01T09:43:42.457Z,94356.28
2022-10-01T09:46:16.619Z,94358.72
2022-10-01T09:49:17.302Z,94351.19
2022-10-01T09:51:55.054Z,94349.72
2022-10-01T09:54:35.068Z,94355.97
2022-10-01T09:57:11.220Z,94347.63
2022-10-01T09:59:54.535Z,94348.63
2022-10-01T10:02:48.469Z,94345.44
2022-10-01T10:05:20.755Z,94349.28
2022-10-01T10:07:54.367Z,94340.59
2022-10-01T10:10:28.920Z,94342.63
2022-10-01T10:13:08.929Z,94342.03
2022-10-01T10:15:51.931Z,94348.53
2022-10-01T10:18:31.742Z,94335.16
2022-10-01T10:21:03.439Z,94337.59
2022-10-01T10:23:32.692Z,94333.94
2022-10-01T10:26:04.036Z,94331.91
2022-10-01T10:28:45.737Z,94344.44
2022-10-01T10:31:26.018Z,94340.75
2022-10-01T10:34:22.822Z,94341.97
2022-10-01T10:36:59.427Z,94340.50
2022-10-01T10:39:28.938Z,94338.25
2022-10-01T10:41:59.459Z,94338.41
2022-10-01T10:44:33.241Z,94338.03
2022-10-01T10:47:04.055Z,94343.25
2022-10-01T10:49:36.003Z,94340.16
2022-10-01T10:52:04.446Z,94332.00
2022-10-01T10:54:38.805Z,94341.53
2022-10-01T10:57:31.771Z,94329.91
2022-10-01T11:00:15.229Z,94335.59
2022-10-01T11:02:57.418Z,94338.81
2022-10-01T11:05:32.995Z,94334.97
2022-10-01T11:08:06.522Z,94333.31
2022-10-01T11:10:49.351Z,94335.34
2022-10-01T11:13:40.541Z,94338.38
2022-10-01T11:16:30.897Z,94341.59
2022-10-01T11:19:20.578Z,94342.84
2022-10-01T11:22:01.473Z,94338.56
2022-10-01T11:24:38.625Z,94328.84
2022-10-01T11:27:26.146Z,94341.66
2022-10-01T11:30:10.814Z,94340.03
2022-10-01T11:33:07.032Z,94338.19
2022-10-01T11:35:56.672Z,94332.09
2022-10-01T11:38:27.663Z,94325.97
2022-10-01T11:41:14.177Z,94332.69
2022-10-01T11:43:49.342Z,94325.97
2022-10-01T11:46:36.705Z,94332.09
2022-10-01T11:49:25.082Z,94329.88
2022-10-01T11:52:08.867Z,94332.38
2022-10-01T11:54:48.250Z,94323.28
2022-10-01T11:57:35.838Z,94321.03
2022-10-01T12:00:12.742Z,94325.13
2022-10-01T12:02:55.318Z,94323.16
2022-10-01T12:05:29.617Z,94324.53
2022-10-01T12:08:10.230Z,94320.66
2022-10-01T12:11:01.048Z,94314.31
2022-10-01T12:13:44.155Z,94319.00
2022-10-01T12:16:39.186Z,94316.38
2022-10-01T12:19:26.254Z,94311.50
2022-10-01T12:22:00.580Z,94310.50
2022-10-01T12:24:37.598Z,94312.56
2022-10-01T12:27:36.881Z,94307.47
2022-10-01T12:30:05.338Z,94309.69
2022-10-01T12:32:39.072Z,94308.69
2022-10-01T12:35:36.681Z,94307.69
2022-10-01T12:38:46.560Z,94303.94
2022-10-01T12:41:37.071Z,94301.72
2022-10-01T12:44:47.039Z,94296.63
2022-10-01T12:47:21.773Z,94297.84
2022-10-01T12:50:38.314Z,94294.78
2022-10-01T12:53:45.573Z,94300.66
2022-10-01T12:56:18.785Z,94300.47
2022-10-01T12:59:05.250Z,94305.75
2022-10-01T13:02:03.203Z,94293.56
2022-10-01T13:05:13.083Z,94291.75
2022-10-01T13:08:11.481Z,94287.50
2022-10-01T13:11:07.037Z,94280.81
2022-10-01T13:13:36.347Z,94284.72
2022-10-01T13:16:18.346Z,94283.94
2022-10-01T13:19:10.186Z,94282.50
2022-10-01T13:21:58.402Z,94276.97
2022-10-01T13:24:48.238Z,94285.47
2022-10-01T13:27:37.719Z,94284.28
2022-10-01T13:30:18.027Z,94280.66
2022-10-01T13:32:54.670Z,94279.66
2022-10-01T13:35:37.344Z,94274.16
2022-10-01T13:38:30.332Z,94282.53
2022-10-01T13:41:05.989Z,94285.00
2022-10-01T13:43:37.214Z,94287.66
2022-10-01T13:46:12.592Z,94289.50
2022-10-01T13:48:50.016Z,94289.69
2022-10-01T13:51:18.908Z,94291.31
2022-10-01T13:54:02.088Z,94292.97
2022-10-01T13:56:36.607Z,94297.19
2022-10-01T13:59:22.062Z,94290.22
2022-10-01T14:01:50.521Z,94287.28
2022-10-01T14:04:32.334Z,94282.31
2022-10-01T14:07:16.122Z,94280.88
2022-10-01T14:09:55.005Z,94278.13
2022-10-01T14:12:53.090Z,94276.69
2022-10-01T14:15:52.148Z,94275.34
2022-10-01T14:18:24.257Z,94276.00
2022-10-01T14:21:14.136Z,94283.13
2022-10-01T14:23:48.538Z,94281.94
2022-10-01T14:26:37.424Z,94279.75
2022-10-01T14:29:50.654Z,94286.44
2022-10-01T14:32:24.858Z,94283.19
2022-10-01T14:35:20.684Z,94275.28
2022-10-01T14:37:49.323Z,94283.63
2022-10-01T14:40:24.417Z,94279.56
2022-10-01T14:43:20.833Z,94284.63
2022-10-01T14:46:06.241Z,94294.38
2022-10-01T14:48:39.026Z,94290.31
2022-10-01T14:51:21.431Z,94295.59
2022-10-01T14:53:50.011Z,94300.66
2022-10-01T14:56:18.918Z,94308.56
2022-10-01T14:58:53.890Z,94312.03
2022-10-01T15:01:27.124Z,94307.75
2022-10-01T15:03:55.865Z,94308.78
2022-10-01T15:06:29.267Z,94303.50
2022-10-01T15:09:04.382Z,94306.53
2022-10-01T15:11:35.207Z,94310.00
2022-10-01T15:14:09.343Z,94305.53
2022-10-01T15:16:39.021Z,94311.41
2022-10-01T15:19:17.100Z,94302.44
2022-10-01T15:21:52.830Z,94310.16
2022-10-01T15:24:42.583Z,94307.91
2022-10-01T15:27:14.904Z,94308.88
2022-10-01T15:29:45.269Z,94310.47
2022-10-01T15:32:19.067Z,94305.75
2022-10-01T15:35:06.326Z,94306.34
2022-10-01T15:37:39.599Z,94311.81
2022-10-01T15:40:10.682Z,94315.81
2022-10-01T15:42:39.199Z,94306.63
2022-10-01T15:45:10.939Z,94313.63
2022-10-01T15:47:41.290Z,94311.00
2022-10-01T15:50:12.442Z,94316.78
2022-10-01T15:52:51.776Z,94314.84
2022-10-01T15:55:32.129Z,94312.97
2022-10-01T15:58:08.663Z,94306.72
2022-10-01T16:00:46.234Z,94297.75
2022-10-01T16:03:32.517Z,94294.47
2022-10-01T16:06:03.413Z,94295.66
2022-10-01T16:09:01.468Z,94288.72
2022-10-01T16:11:34.233Z,94282.81
2022-10-01T16:14:23.027Z,94286.59
2022-10-01T16:16:52.040Z,94295.34
2022-10-01T16:19:25.050Z,94289.75
2022-10-01T16:22:35.282Z,94293.63
2022-10-01T16:25:26.187Z,94285.47
2022-10-01T16:28:06.667Z,94295.19
2022-10-01T16:30:35.754Z,94288.84
2022-10-01T16:33:07.329Z,94291.50
2022-10-01T16:35:41.723Z,94289.28
2022-10-01T16:38:10.942Z,94283.59
2022-10-01T16:40:43.414Z,94287.81
2022-10-01T16:43:18.525Z,94291.00
2022-10-01T16:45:47.573Z,94297.19
2022-10-01T16:48:23.252Z,94288.59
2022-10-01T16:50:54.878Z,94281.50
2022-10-01T16:53:26.091Z,94285.00
2022-10-01T16:55:57.176Z,94274.16
2022-10-01T16:58:26.247Z,94265.22
2022-10-01T17:00:54.963Z,94270.66
2022-10-01T17:03:23.602Z,94270.91
2022-10-01T17:05:51.897Z,94260.34
2022-10-01T17:08:20.515Z,94269.34
2022-10-01T17:10:54.665Z,94272.75
2022-10-01T17:13:23.129Z,94260.28
2022-10-01T17:15:52.988Z,94264.56
2022-10-01T17:18:22.457Z,94263.41
2022-10-01T17:20:50.956Z,94260.19
2022-10-01T17:23:21.878Z,94261.28
2022-10-01T17:25:50.924Z,94250.84
2022-10-01T17:28:21.424Z,94252.47
2022-10-01T17:30:50.852Z,94248.72
2022-10-01T17:33:20.939Z,94244.38
2022-10-01T17:35:53.022Z,94252.88
2022-10-01T17:38:22.306Z,94242.75
2022-10-01T17:40:56.518Z,94247.13
2022-10-01T17:43:25.310Z,94238.22
2022-10-01T17:46:02.033Z,94237.81
2022-10-01T17:48:31.353Z,94234.97
2022-10-01T17:51:01.817Z,94233.84
2022-10-01T17:53:35.913Z,94228.13
2022-10-01T17:56:16.383Z,94223.81
2022-10-01T17:58:46.184Z,94223.16
2022-10-01T18:01:21.550Z,94210.91
2022-10-01T18:03:56.148Z,94212.34
2022-10-01T18:06:25.919Z,94209.88
2022-10-01T18:08:56.257Z,94200.94
2022-10-01T18:11:27.348Z,94198.25
2022-10-01T18:13:55.851Z,94196.16
2022-10-01T18:16:25.588Z,94201.53
2022-10-01T18:21:49.178Z,94193.75
2022-10-01T18:24:17.838Z,94188.09
2022-10-01T18:26:47.268Z,94188.63
2022-10-01T18:29:20.380Z,94186.81
2022-10-01T18:31:53.271Z,94178.84
2022-10-01T18:34:34.147Z,94177.38
2022-10-01T18:37:43.682Z,94174.38
2022-10-01T18:40:21.339Z,94164.97
2022-10-01T18:42:55.294Z,94162.13
2022-10-01T18:45:35.764Z,94161.53
2022-10-01T18:48:31.583Z,94156.72
2022-10-01T18:51:36.172Z,94154.38
2022-10-01T18:54:22.413Z,94159.19
2022-10-01T18:57:20.357Z,94143.50
2022-10-01T19:00:18.261Z,94148.91
2022-10-01T19:03:01.999Z,94146.94
2022-10-01T19:05:45.048Z,94145.09
2022-10-01T19:08:31.466Z,94135.59
2022-10-01T19:11:28.885Z,94133.44
2022-10-01T19:14:03.528Z,94124.19
2022-10-01T19:16:47.388Z,94129.91
2022-10-01T19:19:31.996Z,94125.22
2022-10-01T19:22:07.565Z,94124.56
2022-10-01T19:24:55.649Z,94130.59
2022-10-01T19:27:45.557Z,94119.31
2022-10-01T19:30:16.989Z,94117.06
2022-10-01T19:33:01.540Z,94106.59
2022-10-01T19:35:35.025Z,94105.09
2022-10-01T19:38:39.900Z,94098.38
2022-10-01T19:41:21.349Z,94096.50
2022-10-01T19:44:00.737Z,94092.81
2022-10-01T19:46:37.471Z,94087.16
2022-10-01T19:49:16.912Z,94090.78
2022-10-01T19:52:00.917Z,94091.13
2022-10-01T19:54:36.183Z,94082.47
2022-10-01T19:57:14.142Z,94077.63
2022-10-01T19:59:42.289Z,94089.75
2022-10-01T20:02:37.946Z,94079.94
2022-10-01T20:05:10.181Z,94077.25
2022-10-01T20:08:06.267Z,94073.63
2022-10-01T20:10:59.200Z,94075.16
2022-10-01T20:13:54.667Z,94063.88
2022-10-01T20:16:49.118Z,94059.31
2022-10-01T20:19:30.078Z,94058.00
2022-10-01T20:22:21.343Z,94048.41
2022-10-01T20:25:15.811Z,94044.13
2022-10-01T20:27:57.368Z,94041.91
2022-10-01T20:30:26.019Z,94041.63
2022-10-01T20:33:15.541Z,94042.97
2022-10-01T20:36:05.631Z,94040.22
2022-10-01T20:38:49.251Z,94047.13
2022-10-01T20:41:21.283Z,94040.91
2022-10-01T20:43:58.156Z,94032.31
2022-10-01T20:46:42.046Z,94031.31
2022-10-01T20:49:19.491Z,94022.22
2022-10-01T20:51:56.741Z,94026.47
2022-10-01T20:54:32.664Z,94025.81
2022-10-01T20:57:00.485Z,94009.84
2022-10-01T20:59:35.715Z,94013.16
2022-10-01T21:02:18.457Z,94007.38
2022-10-01T21:04:57.751Z,94011.56
2022-10-01T21:07:39.070Z,93996.84
2022-10-01T21:10:27.357Z,93998.63
2022-10-01T21:13:14.815Z,93996.75
2022-10-01T21:16:04.180Z,93993.38
2022-10-01T21:18:43.319Z,93988.91
2022-10-01T21:21:33.321Z,93988.22
2022-10-01T21:24:24.257Z,93980.94
2022-10-01T21:27:04.179Z,93979.63
2022-10-01T21:30:05.529Z,93973.81
2022-10-01T21:33:02.451Z,93965.22
2022-10-01T21:35:57.886Z,93965.00
2022-10-01T21:39:01.308Z,93949.97
2022-10-01T21:41:50.499Z,93957.50
2022-10-01T21:44:50.966Z,93950.19
2022-10-01T21:47:44.220Z,93947.66
2022-10-01T21:50:32.074Z,93943.72
2022-10-01T21:53:36.234Z,93940.28
2022-10-01T21:56:04.834Z,93927.13
2022-10-01T21:59:06.525Z,93929.47
2022-10-01T22:02:11.993Z,93928.72
2022-10-01T22:04:50.682Z,93926.69
2022-10-01T22:07:41.623Z,93918.56
2022-10-01T22:10:20.998Z,93920.75
2022-10-01T22:12:53.191Z,93913.41
2022-10-01T22:15:31.161Z,93913.66
2022-10-01T22:18:03.991Z,93906.94
2022-10-01T22:20:34.226Z,93901.81
2022-10-01T22:23:09.163Z,93898.75
2022-10-01T22:25:45.087Z,93896.44
2022-10-01T22:28:23.581Z,93894.41
2022-10-01T22:30:55.450Z,93890.13
2022-10-01T22:33:34.777Z,93892.88
2022-10-01T22:36:31.737Z,93887.03
2022-10-01T22:39:11.103Z,93879.50
2022-10-01T22:41:42.147Z,93880.56
2022-10-01T22:44:21.309Z,93883.38
2022-10-01T22:47:32.249Z,93872.97
2022-10-01T22:50:08.054Z,93877.19
2022-10-01T22:53:00.934Z,93875.59
2022-10-01T22:55:41.034Z,93875.88
2022-10-01T22:58:30.552Z,93872.38
2022-10-01T23:01:20.280Z,93868.25
2022-10-01T23:04:00.983Z,93871.00
2022-10-01T23:06:35.817Z,93865.19
2022-10-01T23:09:31.573Z,93861.41
2022-10-01T23:12:33.444Z,93851.97
2022-10-01T23:15:29.442Z,93858.22
2022-10-01T23:18:16.478Z,93851.81
2022-10-01T23:21:08.447Z,93844.53
2022-10-01T23:23:37.021Z,93837.91
2022-10-01T23:26:34.729Z,93829.41
2022-10-01T23:29:33.356Z,93822.94
2022-10-01T23:32:30.264Z,93827.78
2022-10-01T23:35:23.104Z,93822.22
2022-10-01T23:38:00.202Z,93829.56
2022-10-01T23:40:52.922Z,93813.50
2022-10-01T23:43:26.225Z,93808.97
2022-10-01T23:46:15.934Z,93808.19
2022-10-01T23:48:52.451Z,93802.78
2022-10-01T23:51:29.307Z,93796.97
2022-10-01T23:54:27.678Z,93796.16
2022-10-01T23:57:15.837Z,93789.59
